Time,TemperatureF,DewpointF,PressureIn,WindDirection,WindDirectionDegrees,WindSpeedMPH,WindSpeedGustMPH,Humidity,HourlyPrecipIn,Conditions,Clouds,dailyrainin,SoftwareType,DateUTC
2013-02-05 00:00:00,47.0,43.0,29.90,SSE,160,17.0,20.0,85,-99.99,,,-99.99,,2013-02-05 08:00:00,
2013-02-05 00:21:00,47.0,43.0,29.90,SSE,160,17.0,20.0,85,-99.99,,,-99.99,,2013-02-05 08:21:00,
2013-02-05 00:31:00,47.0,43.0,29.90,SSE,160,17.0,20.0,85,-99.99,,,-99.99,,2013-02-05 08:31:00,
2013-02-05 00:41:00,47.0,43.0,29.90,SSE,160,17.0,20.0,85,-99.99,,,-99.99,,2013-02-05 08:41:00,
2013-02-05 00:52:00,47.0,43.0,29.90,SSE,160,17.0,20.0,85,-99.99,,,-99.99,,2013-02-05 08:52:00,
2013-02-05 01:00:00,46.0,43.0,29.89,South,180,16.0,18.0,88,-99.99,,,-99.99,,2013-02-05 09:00:00,
2013-02-05 01:21:00,46.0,43.0,29.89,South,180,16.0,18.0,88,-99.99,,,-99.99,,2013-02-05 09:21:00,
2013-02-05 01:31:00,46.0,43.0,29.89,South,180,16.0,18.0,88,-99.99,,,-99.99,,2013-02-05 09:31:00,
2013-02-05 01:41:00,46.0,43.0,29.89,South,180,16.0,18.0,88,-99.99,,,-99.99,,2013-02-05 09:41:00,
2013-02-05 01:51:00,46.0,43.0,29.89,South,180,16.0,18.0,88,-99.99,,,-99.99,,2013-02-05 09:51:00,
2013-02-05 02:00:00,47.0,43.0,29.88,South,180,18.0,21.0,87,-99.99,,,-99.99,,2013-02-05 10:00:00,
2013-02-05 02:21:00,47.0,43.0,29.88,South,180,18.0,21.0,87,-99.99,,,-99.99,,2013-02-05 10:21:00,
2013-02-05 02:31:00,47.0,43.0,29.88,South,180,18.0,21.0,87,-99.99,,,-99.99,,2013-02-05 10:31:00,
2013-02-05 02:42:00,47.0,43.0,29.88,South,180,18.0,21.0,87,-99.99,,,-99.99,,2013-02-05 10:42:00,
2013-02-05 02:51:00,47.0,43.0,29.88,South,180,18.0,21.0,87,-99.99,,,-99.99,,2013-02-05 10:51:00,
2013-02-05 03:00:00,46.0,44.0,29.87,South,170,15.0,17.0,92,-99.99,,,-99.99,,2013-02-05 11:00:00,
2013-02-05 03:21:00,46.0,44.0,29.87,South,170,15.0,17.0,92,-99.99,,,-99.99,,2013-02-05 11:21:00,
2013-02-05 03:31:00,46.0,44.0,29.87,South,170,15.0,17.0,92,-99.99,,,-99.99,,2013-02-05 11:31:00,
2013-02-05 03:41:00,46.0,44.0,29.87,South,170,15.0,17.0,92,-99.99,,,-99.99,,2013-02-05 11:41:00,
2013-02-05 03:52:00,46.0,44.0,29.87,South,170,15.0,17.0,92,-99.99,,,-99.99,,2013-02-05 11:52:00,
2013-02-05 04:00:00,46.0,44.0,29.88,South,180,15.0,16.0,92,-99.99,,,-99.99,,2013-02-05 12:00:00,
2013-02-05 04:21:00,46.0,44.0,29.88,South,180,15.0,16.0,92,-99.99,,,-99.99,,2013-02-05 12:21:00,
2013-02-05 04:31:00,46.0,44.0,29.88,South,180,15.0,16.0,92,-99.99,,,-99.99,,2013-02-05 12:31:00,
2013-02-05 04:41:00,46.0,44.0,29.88,South,180,15.0,16.0,92,-99.99,,,-99.99,,2013-02-05 12:41:00,
2013-02-05 04:51:00,46.0,44.0,29.88,South,180,15.0,16.0,92,-99.99,,,-99.99,,2013-02-05 12:51:00,
2013-02-05 05:00:00,45.0,44.0,29.87,South,190,16.0,17.0,94,-99.99,,,-99.99,,2013-02-05 13:00:00,
2013-02-05 05:21:00,45.0,44.0,29.87,South,190,16.0,17.0,94,-99.99,,,-99.99,,2013-02-05 13:21:00,
2013-02-05 05:31:00,45.0,44.0,29.87,South,190,16.0,17.0,94,-99.99,,,-99.99,,2013-02-05 13:31:00,
2013-02-05 05:41:00,45.0,44.0,29.87,South,190,16.0,17.0,94,-99.99,,,-99.99,,2013-02-05 13:41:00,
2013-02-05 05:51:00,45.0,44.0,29.87,South,190,16.0,17.0,94,-99.99,,,-99.99,,2013-02-05 13:51:00,
2013-02-05 06:00:00,46.0,44.0,29.84,South,180,21.0,22.0,94,-99.99,,,-99.99,,2013-02-05 14:00:00,
2013-02-05 06:21:00,46.0,44.0,29.84,South,180,21.0,22.0,94,-99.99,,,-99.99,,2013-02-05 14:21:00,
2013-02-05 06:31:00,46.0,44.0,29.84,South,180,21.0,22.0,94,-99.99,,,-99.99,,2013-02-05 14:31:00,
2013-02-05 06:41:00,46.0,44.0,29.84,South,180,21.0,22.0,94,-99.99,,,-99.99,,2013-02-05 14:41:00,
2013-02-05 06:52:00,46.0,44.0,29.84,South,180,21.0,22.0,94,-99.99,,,-99.99,,2013-02-05 14:52:00,
2013-02-05 07:00:00,46.0,44.0,29.83,SSE,160,14.0,15.0,90,-99.99,,,-99.99,,2013-02-05 15:00:00,
2013-02-05 07:21:00,46.0,44.0,29.83,SSE,160,14.0,15.0,90,-99.99,,,-99.99,,2013-02-05 15:21:00,
2013-02-05 07:32:00,46.0,44.0,29.83,SSE,160,14.0,15.0,90,-99.99,,,-99.99,,2013-02-05 15:32:00,
2013-02-05 07:41:00,46.0,44.0,29.83,SSE,160,14.0,15.0,90,-99.99,,,-99.99,,2013-02-05 15:41:00,
2013-02-05 07:51:00,46.0,44.0,29.83,SSE,160,14.0,15.0,90,-99.99,,,-99.99,,2013-02-05 15:51:00,
2013-02-05 08:00:00,46.0,43.0,29.85,SSE,150,14.0,16.0,90,-99.99,,,-99.99,,2013-02-05 16:00:00,
2013-02-05 08:21:00,46.0,43.0,29.85,SSE,150,14.0,16.0,90,-99.99,,,-99.99,,2013-02-05 16:21:00,
2013-02-05 08:32:00,46.0,43.0,29.85,SSE,150,14.0,16.0,90,-99.99,,,-99.99,,2013-02-05 16:32:00,
2013-02-05 08:41:00,46.0,43.0,29.85,SSE,150,14.0,16.0,90,-99.99,,,-99.99,,2013-02-05 16:41:00,
2013-02-05 08:51:00,46.0,43.0,29.85,SSE,150,14.0,16.0,90,-99.99,,,-99.99,,2013-02-05 16:51:00,
2013-02-05 09:00:00,47.0,43.0,29.86,South,180,20.0,22.0,87,-99.99,,,-99.99,,2013-02-05 17:00:00,
2013-02-05 09:21:00,47.0,43.0,29.86,South,180,20.0,22.0,87,-99.99,,,-99.99,,2013-02-05 17:21:00,
2013-02-05 09:32:00,47.0,43.0,29.86,South,180,20.0,22.0,87,-99.99,,,-99.99,,2013-02-05 17:32:00,
2013-02-05 09:41:00,47.0,43.0,29.86,South,180,20.0,22.0,87,-99.99,,,-99.99,,2013-02-05 17:41:00,
2013-02-05 09:52:00,47.0,43.0,29.86,South,180,20.0,22.0,87,-99.99,,,-99.99,,2013-02-05 17:52:00,
2013-02-05 10:00:00,47.0,43.0,29.86,South,190,23.0,25.0,84,-99.99,,,-99.99,,2013-02-05 18:00:00,
2013-02-05 10:21:00,47.0,43.0,29.86,South,190,23.0,25.0,84,-99.99,,,-99.99,,2013-02-05 18:21:00,
2013-02-05 10:31:00,47.0,43.0,29.86,South,190,23.0,25.0,84,-99.99,,,-99.99,,2013-02-05 18:31:00,
2013-02-05 10:42:00,47.0,43.0,29.86,South,190,23.0,25.0,84,-99.99,,,-99.99,,2013-02-05 18:42:00,
2013-02-05 10:51:00,47.0,43.0,29.86,South,190,23.0,25.0,84,-99.99,,,-99.99,,2013-02-05 18:51:00,
2013-02-05 11:00:00,48.0,43.0,29.87,South,190,23.0,25.0,82,-99.99,,,-99.99,,2013-02-05 19:00:00,
2013-02-05 11:21:00,48.0,43.0,29.87,South,190,23.0,25.0,82,-99.99,,,-99.99,,2013-02-05 19:21:00,
2013-02-05 11:31:00,48.0,43.0,29.87,South,190,23.0,25.0,82,-99.99,,,-99.99,,2013-02-05 19:31:00,
2013-02-05 11:42:00,48.0,43.0,29.87,South,190,23.0,25.0,82,-99.99,,,-99.99,,2013-02-05 19:42:00,
2013-02-05 11:51:00,48.0,43.0,29.87,South,190,23.0,25.0,82,-99.99,,,-99.99,,2013-02-05 19:51:00,
2013-02-05 12:00:00,48.0,43.0,29.87,South,190,20.0,22.0,82,-99.99,,,-99.99,,2013-02-05 20:00:00,
2013-02-05 12:21:00,48.0,43.0,29.87,South,190,20.0,22.0,82,-99.99,,,-99.99,,2013-02-05 20:21:00,
2013-02-05 12:31:00,48.0,43.0,29.87,South,190,20.0,22.0,82,-99.99,,,-99.99,,2013-02-05 20:31:00,
2013-02-05 12:41:00,48.0,43.0,29.87,South,190,20.0,22.0,82,-99.99,,,-99.99,,2013-02-05 20:41:00,
2013-02-05 12:52:00,48.0,43.0,29.87,South,190,20.0,22.0,82,-99.99,,,-99.99,,2013-02-05 20:52:00,
2013-02-05 13:00:00,49.0,43.0,29.86,South,190,18.0,22.0,79,-99.99,,,-99.99,,2013-02-05 21:00:00,
2013-02-05 13:21:00,49.0,43.0,29.86,South,190,18.0,22.0,79,-99.99,,,-99.99,,2013-02-05 21:21:00,
2013-02-05 13:31:00,49.0,43.0,29.86,South,190,18.0,22.0,79,-99.99,,,-99.99,,2013-02-05 21:31:00,
2013-02-05 13:41:00,49.0,43.0,29.86,South,190,18.0,22.0,79,-99.99,,,-99.99,,2013-02-05 21:41:00,
2013-02-05 13:51:00,49.0,43.0,29.86,South,190,18.0,22.0,79,-99.99,,,-99.99,,2013-02-05 21:51:00,
2013-02-05 14:00:00,48.0,44.0,29.84,South,170,22.0,23.0,84,-99.99,,,-99.99,,2013-02-05 22:00:00,
2013-02-05 14:21:00,48.0,44.0,29.84,South,170,22.0,23.0,84,-99.99,,,-99.99,,2013-02-05 22:21:00,
2013-02-05 14:31:00,48.0,44.0,29.84,South,170,22.0,23.0,84,-99.99,,,-99.99,,2013-02-05 22:31:00,
2013-02-05 14:41:00,48.0,44.0,29.84,South,170,22.0,23.0,84,-99.99,,,-99.99,,2013-02-05 22:41:00,
2013-02-05 14:51:00,48.0,44.0,29.84,South,170,22.0,23.0,84,-99.99,,,-99.99,,2013-02-05 22:51:00,
2013-02-05 15:00:00,48.0,42.0,29.84,SSW,200,26.0,30.0,79,-99.99,,,-99.99,,2013-02-05 23:00:00,
2013-02-05 15:21:00,48.0,42.0,29.84,SSW,200,26.0,30.0,79,-99.99,,,-99.99,,2013-02-05 23:21:00,
2013-02-05 15:31:00,48.0,42.0,29.84,SSW,200,26.0,30.0,79,-99.99,,,-99.99,,2013-02-05 23:31:00,
2013-02-05 15:41:00,48.0,42.0,29.84,SSW,200,26.0,30.0,79,-99.99,,,-99.99,,2013-02-05 23:41:00,
2013-02-05 15:51:00,48.0,42.0,29.84,SSW,200,26.0,30.0,79,-99.99,,,-99.99,,2013-02-05 23:51:00,
2013-02-05 16:00:00,48.0,43.0,29.84,South,180,21.0,23.0,83,-99.99,,,-99.99,,2013-02-06 00:00:00,
2013-02-05 16:21:00,48.0,43.0,29.84,South,180,21.0,23.0,83,-99.99,,,-99.99,,2013-02-06 00:21:00,
2013-02-05 16:31:00,48.0,43.0,29.84,South,180,21.0,23.0,83,-99.99,,,-99.99,,2013-02-06 00:31:00,
2013-02-05 16:41:00,48.0,43.0,29.84,South,180,21.0,23.0,83,-99.99,,,-99.99,,2013-02-06 00:41:00,
2013-02-05 16:51:00,48.0,43.0,29.84,South,180,21.0,23.0,83,-99.99,,,-99.99,,2013-02-06 00:51:00,
2013-02-05 17:00:00,46.0,42.0,29.85,SSW,210,28.0,30.0,83,-99.99,,,-99.99,,2013-02-06 01:00:00,
2013-02-05 17:21:00,46.0,42.0,29.85,SSW,210,28.0,30.0,83,-99.99,,,-99.99,,2013-02-06 01:21:00,
2013-02-05 17:31:00,46.0,42.0,29.85,SSW,210,28.0,30.0,83,-99.99,,,-99.99,,2013-02-06 01:31:00,
2013-02-05 17:41:00,46.0,42.0,29.85,SSW,210,28.0,30.0,83,-99.99,,,-99.99,,2013-02-06 01:41:00,
2013-02-05 17:52:00,46.0,42.0,29.85,SSW,210,28.0,30.0,83,-99.99,,,-99.99,,2013-02-06 01:52:00,
2013-02-05 18:00:00,47.0,43.0,29.84,South,190,26.0,30.0,87,-99.99,,,-99.99,,2013-02-06 02:00:00,
2013-02-05 18:21:00,47.0,43.0,29.84,South,190,26.0,30.0,87,-99.99,,,-99.99,,2013-02-06 02:21:00,
2013-02-05 18:31:00,47.0,43.0,29.84,South,190,26.0,30.0,87,-99.99,,,-99.99,,2013-02-06 02:31:00,
2013-02-05 18:41:00,47.0,43.0,29.84,South,190,26.0,30.0,87,-99.99,,,-99.99,,2013-02-06 02:41:00,
2013-02-05 18:52:00,47.0,43.0,29.84,South,190,26.0,30.0,87,-99.99,,,-99.99,,2013-02-06 02:52:00,
2013-02-05 19:00:00,47.0,43.0,29.86,South,190,26.0,29.0,86,-99.99,,,-99.99,,2013-02-06 03:00:00,
2013-02-05 19:21:00,47.0,43.0,29.86,South,190,26.0,29.0,86,-99.99,,,-99.99,,2013-02-06 03:21:00,
2013-02-05 19:31:00,47.0,43.0,29.86,South,190,26.0,29.0,86,-99.99,,,-99.99,,2013-02-06 03:31:00,
2013-02-05 19:41:00,47.0,43.0,29.86,South,190,26.0,29.0,86,-99.99,,,-99.99,,2013-02-06 03:41:00,
2013-02-05 19:52:00,47.0,43.0,29.86,South,190,26.0,29.0,86,-99.99,,,-99.99,,2013-02-06 03:52:00,
2013-02-05 20:00:00,46.0,43.0,29.87,South,180,30.0,32.0,89,-99.99,,,-99.99,,2013-02-06 04:00:00,
2013-02-05 20:21:00,46.0,43.0,29.87,South,180,30.0,32.0,89,-99.99,,,-99.99,,2013-02-06 04:21:00,
2013-02-05 20:31:00,46.0,43.0,29.87,South,180,30.0,32.0,89,-99.99,,,-99.99,,2013-02-06 04:31:00,
2013-02-05 20:41:00,46.0,43.0,29.87,South,180,30.0,32.0,89,-99.99,,,-99.99,,2013-02-06 04:41:00,
2013-02-05 20:51:00,46.0,43.0,29.87,South,180,30.0,32.0,89,-99.99,,,-99.99,,2013-02-06 04:51:00,
2013-02-05 21:00:00,46.0,43.0,29.88,South,180,30.0,33.0,88,-99.99,,,-99.99,,2013-02-06 05:00:00,
2013-02-05 21:22:00,46.0,43.0,29.88,South,180,30.0,33.0,88,-99.99,,,-99.99,,2013-02-06 05:22:00,
2013-02-05 21:31:00,46.0,43.0,29.88,South,180,30.0,33.0,88,-99.99,,,-99.99,,2013-02-06 05:31:00,
2013-02-05 21:41:00,46.0,43.0,29.88,South,180,30.0,33.0,88,-99.99,,,-99.99,,2013-02-06 05:41:00,
2013-02-05 21:52:00,46.0,43.0,29.88,South,180,30.0,33.0,88,-99.99,,,-99.99,,2013-02-06 05:52:00,
2013-02-05 22:00:00,45.0,43.0,29.89,South,180,26.0,30.0,90,-99.99,,,-99.99,,2013-02-06 06:00:00,
2013-02-05 22:21:00,45.0,43.0,29.89,South,180,26.0,30.0,90,-99.99,,,-99.99,,2013-02-06 06:21:00,
2013-02-05 22:31:00,45.0,43.0,29.89,South,180,26.0,30.0,90,-99.99,,,-99.99,,2013-02-06 06:31:00,
2013-02-05 22:41:00,45.0,43.0,29.89,South,180,26.0,30.0,90,-99.99,,,-99.99,,2013-02-06 06:41:00,
2013-02-05 22:51:00,45.0,43.0,29.89,South,180,26.0,30.0,90,-99.99,,,-99.99,,2013-02-06 06:51:00,
2013-02-05 23:00:00,45.0,43.0,29.90,South,190,33.0,37.0,90,-99.99,,,-99.99,,2013-02-06 07:00:00,
2013-02-05 23:21:00,45.0,43.0,29.90,South,190,33.0,37.0,90,-99.99,,,-99.99,,2013-02-06 07:21:00,
2013-02-05 23:32:00,45.0,43.0,29.90,South,190,33.0,37.0,90,-99.99,,,-99.99,,2013-02-06 07:32:00,
2013-02-05 23:41:00,45.0,43.0,29.90,South,190,33.0,37.0,90,-99.99,,,-99.99,,2013-02-06 07:41:00,
2013-02-05 23:51:00,45.0,43.0,29.90,South,190,33.0,37.0,90,-99.99,,,-99.99,,2013-02-06 07:51:00,